Weather observations for the past three days for
Pine Bluffs Municipal Airport
Imperial (Metric)
Date Time (mdt) Wind (mph) Vis. (mi.) Weather Sky Cond. Temperature (ºF) Relative Humidity Wind Chill (°F) Heat Index (°F) Pressure Precipitation (in)
Air Dwpt 6 hour altimeter (in) sea level (mb) 1 hr 3 hr 6 hr
Max. Min.
03 03:55 S 6 10.00 Overcast OVC120 57.9 54.3 88% 30.02 0.0
03 03:35 S 3 10.00 Overcast OVC120 57.2 54.7 91% 30.02 0.0
03 03:15 W 6 10.00 Partly Cloudy SCT120 57 54.7 92% 30.02 0.0
03 02:55 W 10 10.00 Fair CLR 57.4 55.9 95% 30.02 0.0
03 02:35 Calm 10.00 Partly Cloudy SCT110 58.5 56.7 94% 30.02 0.0
03 02:15 SW 3 10.00 Mostly Cloudy BKN110 59.2 57 93% 30.02 0.0
03 01:55 W 6 10.00 Mostly Cloudy BKN110 59.4 57.4 93% 30.02 0.0
03 01:35 W 5 9.00 Mostly Cloudy BKN100 58.8 57.4 95% 30.02 0.0
03 01:15 W 6 10.00 Mostly Cloudy BKN110 59 57.7 96% 30.02 0.0
03 00:55 W 6 10.00 Mostly Cloudy BKN120 58.6 57.2 95% 30.03 0.0
03 00:35 W 6 10.00 A Few Clouds FEW100 58.5 56.8 94% 30.03 0.0
03 00:15 Calm 10.00 Partly Cloudy SCT110 60.4 56.5 87% 30.03 0.0
02 23:55 NE 6 10.00 Thunderstorm in Vicinity SCT110 60.3 57.2 74.3 60.3 90% 30.03 0.0 0.44
02 23:35 Calm 10.00 Mostly Cloudy BKN110 63.1 55.2 76% 30.04 0.0
02 23:15 SE 8 10.00 A Few Clouds FEW120 61.5 56.8 85% 30.06 0.0
02 22:55 SE 7 10.00 Fair CLR 61.9 57.6 86% 30.04 0.0 0.03
02 22:35 SE 8 10.00 A Few Clouds FEW090 61.9 57.6 86% 30.04 0.0 0.03
02 22:15 E 5 10.00 Mostly Cloudy FEW065 BKN090 61.7 57.7 87% 30.04 0.0 0.03
02 21:55 S 9 3.00 Thunderstorm Light Rain FEW011 OVC095 63.7 55.8 76% 30.05 0.0 0.07
02 21:35 W 10 8.00 Light Rain Thunderstorm in Vicinity BKN100 62.6 59.7 90% 30.04 0.0
02 21:15 NW 3 10.00 Partly Cloudy SCT110 62.6 59.4 89% 30.03 0.0
02 20:55 Calm 10.00 Overcast OVC110 63.9 58.5 83% 30.04 0.0 0.34
02 20:35 Calm 10.00 Overcast OVC110 64.6 58.3 80% 30.04 0.0
02 20:15 Calm 10.00 Overcast OVC110 63.7 58.6 84% 30.04 0.0
02 19:55 NE 7 10.00 Partly Cloudy SCT110 62.4 57.4 84% 30.04 0.0
02 19:35 NE 7 10.00 A Few Clouds FEW120 63.5 56.5 78% 30.04 0.0
02 19:15 N 10 9.00 Partly Cloudy SCT110 64.8 57.2 77% 30.06 0.0
02 18:55 NW 8 4.00 Light Rain BKN090 OVC110 64.4 57.6 79% 30.08 0.0 0.34
02 18:35 NW 12 2.00 Overcast with Haze FEW004 SCT049 OVC085 64.2 57 78% 30.09 0.0 0.33
02 18:15 N 15 G 35 0.50 Heavy Rain Thunderstorm in Vicinity FEW004 SCT050 OVC090 63.7 53.8 70% 30.08 0.0 0.31
02 17:55 NW 17 10.00 Mostly Cloudy BKN100 BKN120 77.2 44.8 88.7 77.2 32% 78 30.03 0.0
02 17:35 SE 9 10.00 A Few Clouds FEW120 82.4 45.1 27% 81 30.01 0.0
02 17:15 SE 13 10.00 Fair CLR 84.6 44.6 25% 82 30 0.0
02 16:55 SE 14 10.00 Fair CLR 85.5 44.6 24% 83 30 0.0
02 16:35 S 15 10.00 Fair CLR 86.4 44.8 23% 83 30 0.0
02 16:15 S 14 10.00 Fair CLR 86.9 44.4 23% 84 30 0.0
02 15:55 S 14 G 22 10.00 Fair CLR 87.6 42.1 20% 84 30.01 0.0
02 15:35 S 9 10.00 Fair CLR 87.6 40.5 19% 84 30.01 0.0
02 15:15 S 10 10.00 Fair CLR 87.4 39.2 18% 84 30.02 0.0
02 14:55 SW 13 G 16 10.00 A Few Clouds FEW100 87.8 40.6 19% 84 30.03 0.0
02 14:35 S 12 G 23 10.00 A Few Clouds FEW100 87.4 41.2 20% 84 30.04 0.0
02 14:15 SW 13 10.00 Fair CLR 87.3 41.5 20% 84 30.05 0.0
02 13:55 S 9 10.00 A Few Clouds FEW100 87.6 42.1 20% 84 30.06 0.0
02 13:35 S 7 G 18 10.00 A Few Clouds FEW100 86.5 42.3 21% 83 30.06 0.0
02 13:15 S 10 10.00 Fair CLR 85.8 42.3 22% 83 30.06 0.0
02 12:55 SW 10 G 17 10.00 Fair CLR 86.5 42.6 21% 83 30.07 0.0
02 12:35 SW 9 G 17 10.00 Fair CLR 86.7 43.5 22% 84 30.07 0.0
02 12:15 W 7 10.00 Fair CLR 84 40.5 21% 81 30.08 0.0
02 11:55 W 7 10.00 Fair CLR 85.1 41 85.6 50.9 21% 82 30.09 0.0
02 11:35 W 9 10.00 Fair CLR 84.4 42.4 23% 82 30.1 0.0
02 11:15 Vrbl 5 10.00 Fair CLR 82.4 45.9 28% 81 30.1 0.0
02 10:55 SW 3 10.00 Partly Cloudy SCT120 79.5 46.6 31% 79 30.11 0.0
02 10:35 Calm 10.00 Mostly Cloudy BKN120 78.4 46 32% 78 30.12 0.0
02 10:15 Calm 10.00 Mostly Cloudy BKN120 77.5 46.6 34% 78 30.11 0.0
02 09:55 Calm 10.00 Partly Cloudy SCT110 74.3 46.4 37% 30.12 0.0
02 09:35 W 3 9.00 Mostly Cloudy BKN110 73.4 46.4 38% 30.12 0.0
02 09:15 W 5 10.00 Fair CLR 74.1 45.9 37% 30.11 0.0
02 08:55 Calm 10.00 Fair CLR 72 46.8 41% 30.11 0.0
02 08:35 Calm 10.00 Fair CLR 70 48.4 46% 30.11 0.0
02 08:15 NW 3 10.00 Fair CLR 66.9 48.7 52% 30.11 0.0
02 07:55 W 3 9.00 Fair CLR 61.5 49.5 65% 30.11 0.0
02 07:35 W 3 8.00 Fair CLR 59.2 49.3 70% 30.11 0.0
02 07:15 W 7 9.00 Fair CLR 54.7 48.6 80% 30.1 0.0
02 06:55 W 5 9.00 Fair CLR 51.6 47.5 86% 30.1 0.0
02 06:35 W 3 9.00 Fair CLR 52 46.9 83% 30.1 0.0
02 06:15 Calm 9.00 Fair CLR 52.2 47.8 85% 30.09 0.0
02 05:55 Calm 10.00 A Few Clouds FEW100 54.3 48.2 57.7 52.9 80% 30.09 0.0
02 05:35 W 5 10.00 Partly Cloudy SCT100 54 48.2 81% 30.09 0.0
02 05:15 W 8 10.00 Partly Cloudy SCT100 54.7 48.7 81% 30.09 0.0
02 04:55 SW 5 10.00 A Few Clouds FEW095 54.1 48.4 81% 30.09 0.0
02 04:35 Calm 10.00 A Few Clouds FEW095 54.9 48.2 78% 30.09 0.0
02 04:15 Calm 10.00 Partly Cloudy SCT090 53.1 48.9 86% 30.09 0.0
02 03:55 Calm 10.00 Mostly Cloudy BKN090 BKN110 53.2 49.1 86% 30.09 0.0
02 03:35 Calm 10.00 Partly Cloudy SCT095 53.6 48.6 83% 30.09 0.0
02 03:15 Calm 10.00 Fair CLR 53.6 48 82% 30.09 0.0
02 02:55 Vrbl 3 10.00 Fair CLR 52.9 48.4 85% 30.09 0.0
02 02:35 W 8 10.00 Fair CLR 54.5 48.4 80% 30.09 0.0
02 02:15 Calm 10.00 Fair CLR 55.4 48.2 77% 30.09 0.0
02 01:55 W 7 10.00 Fair CLR 55 48.7 79% 30.1 0.0
02 01:35 W 8 10.00 Fair CLR 55.8 48.6 77% 30.1 0.0
02 01:15 W 7 10.00 Fair CLR 55.8 48.9 78% 30.09 0.0
02 00:55 Vrbl 3 10.00 Fair CLR 55.4 49.5 81% 30.09 0.0
02 00:35 W 9 10.00 Fair CLR 54.1 49.6 85% 30.09 0.0
02 00:15 W 5 10.00 Fair CLR 54.7 49.6 83% 30.09 0.0
01 23:55 SW 6 10.00 Fair CLR 56.8 48.6 83.1 56.8 74% 30.1 0.0
01 23:35 SW 6 10.00 Fair CLR 59.2 47.8 66% 30.1 0.0
01 23:15 SW 5 10.00 Fair CLR 58.6 48.2 68% 30.1 0.0
01 22:55 SW 10 10.00 Fair CLR 63.1 46.6 55% 30.09 0.0
01 22:35 S 12 10.00 Fair CLR 62.4 46.8 57% 30.09 0.0
01 22:15 S 10 10.00 Fair CLR 61.5 47.1 59% 30.09 0.0
01 21:55 S 5 10.00 Fair CLR 61.7 48 61% 30.09 0.0
01 21:35 SW 6 10.00 Fair CLR 61 49.3 66% 30.08 0.0
01 21:15 W 7 9.00 Fair CLR 59.4 50.9 74% 30.08 0.0
01 20:55 W 7 10.00 Fair CLR 64.2 48.7 57% 30.07 0.0
01 20:35 W 8 10.00 Fair CLR 62.8 49.8 63% 30.07 0.0
01 20:15 W 8 10.00 Fair CLR 64.8 49.6 58% 30.06 0.0
01 19:55 W 9 9.00 Mostly Cloudy BKN120 71.4 48.2 44% 30.05 0.0
01 19:35 W 9 9.00 Mostly Cloudy BKN120 72 50.9 48% 30.05 0.0
01 19:15 W 9 9.00 Partly Cloudy SCT095 73.2 55.6 54% 30.05 0.0
01 18:55 W 12 8.00 Light Rain BKN095 BKN120 77.7 49.3 37% 78 30.07 0.0
01 18:35 SW 9 8.00 Partly Cloudy SCT110 77.9 48.6 36% 78 30.06 0.0
01 18:15 SW 9 8.00 A Few Clouds FEW120 79.9 48.4 33% 79 30.06 0.0
01 17:55 W 6 9.00 A Few Clouds FEW120 83.5 47.1 85.5 79 28% 81 30.05 0.0
01 17:35 SW 8 9.00 Partly Cloudy SCT120 84.2 48.7 29% 82 30.05 0.0
01 17:15 S 9 10.00 A Few Clouds FEW110 81.3 47.7 31% 80 30.06 0.0
01 16:55 SW 6 8.00 Mostly Cloudy FEW080 BKN110 81.1 51.6 36% 80 30.06 0.0
01 16:35 W 6 9.00 Light Rain FEW080 SCT110 79.2 52.9 40% 79 30.07 0.0
01 16:15 S 13 10.00 Mostly Cloudy SCT095 BKN120 81.1 49.1 33% 80 30.06 0.0
01 15:55 S 7 G 17 9.00 Mostly Cloudy SCT080 BKN095 BKN120 81.9 50.2 33% 81 30.07 0.0
01 15:35 SW 10 8.00 Mostly Cloudy FEW080 SCT090 BKN120 80.2 51.8 37% 80 30.07 0.0
01 15:15 SW 13 G 20 10.00 Mostly Cloudy SCT090 BKN100 83.7 49.8 31% 82 30.07 0.0
01 14:55 S 14 G 20 10.00 Mostly Cloudy SCT085 BKN120 84.4 50.2 31% 82 30.07 0.0
01 14:35 SW 15 G 21 10.00 A Few Clouds FEW090 85.5 50.7 30% 83 30.08 0.0
01 14:15 SW 10 G 18 10.00 Fair CLR 85.3 50.4 30% 83 30.08 0.0
01 13:55 SW 14 10.00 Fair CLR 84.7 51.3 32% 83 30.08 0.0
01 13:35 S 13 10.00 Fair CLR 83.5 51.4 33% 82 30.08 0.0
01 13:15 SW 9 10.00 Fair CLR 82.8 50.2 32% 81 30.09 0.0
01 12:55 S 10 G 20 10.00 Fair CLR 80.6 52.9 38% 80 30.1 0.0
01 12:35 S 12 10.00 Fair CLR 81.1 53.8 39% 81 30.11 0.0
01 12:15 SW 8 G 16 10.00 Fair CLR 81.3 48.4 32% 80 30.11 0.0
01 11:55 Vrbl 6 10.00 Fair CLR 78.4 47.5 78.6 59 34% 79 30.12 0.0
01 11:35 W 7 10.00 Fair CLR 76.1 48.4 38% 78 30.13 0.0
01 11:15 W 9 10.00 Fair CLR 75.7 48 38% 78 30.13 0.0
01 10:55 W 9 9.00 Fair CLR 75 49.5 41% 78 30.14 0.0
01 10:35 W 12 10.00 Fair CLR 74.7 48.6 40% 30.13 0.0
01 10:15 W 17 10.00 Fair CLR 74.8 48.2 39% 30.13 0.0
01 09:55 W 13 10.00 Fair CLR 74.7 52.9 47% 30.13 0.0
01 09:35 W 10 10.00 Fair CLR 72 53.4 52% 30.13 0.0
01 09:15 W 9 9.00 Fair CLR 70 53.8 57% 30.13 0.0
01 08:55 SW 8 9.00 Fair CLR 69.3 54.5 60% 30.13 0.0
01 08:35 W 8 9.00 Fair CLR 68.2 54.7 62% 30.14 0.0
01 08:15 SW 7 9.00 Fair CLR 65.5 56.5 73% 30.14 0.0
01 07:55 S 5 9.00 Fair CLR 61.2 57.6 88% 30.13 0.0
01 07:35 S 5 9.00 Fair CLR 60.3 57.4 90% 30.13 0.0
01 07:15 S 5 9.00 Fair CLR 61.2 55.2 81% 30.13 0.0
01 06:55 W 3 9.00 Fair CLR 59.4 56.5 90% 30.13 0.0
01 06:35 Calm 9.00 Fair CLR 59.2 56.1 90% 30.12 0.0
01 06:15 SW 3 10.00 Fair CLR 60.3 55.8 85% 30.11 0.0
01 05:55 SW 5 10.00 Fair CLR 59.9 56.3 64.8 59.9 88% 30.1 0.0
01 05:35 S 6 10.00 Fair CLR 61.2 55.6 82% 30.1 0.0
01 05:15 SW 8 10.00 A Few Clouds FEW120 61.2 55.8 83% 30.1 0.0
01 04:55 S 8 10.00 Mostly Cloudy BKN120 60.8 57.2 88% 30.11 0.0
01 04:35 SW 10 10.00 Partly Cloudy SCT120 62.6 55.8 78% 30.11 0.0
01 04:15 SW 6 10.00 Mostly Cloudy BKN120 61.9 57 84% 30.1 0.0
01 03:55 S 8 10.00 Overcast BKN100 OVC120 63.5 55.6 76% 30.11 0.0
01 03:35 SW 10 10.00 Overcast BKN095 OVC110 64 55 73% 30.12 0.0
01 03:15 W 10 10.00 Overcast OVC095 64 55.2 73% 30.12 0.0
01 02:55 W 9 10.00 Mostly Cloudy BKN100 BKN120 64.8 54.3 69% 30.12 0.0
01 02:35 SW 13 10.00 Mostly Cloudy FEW090 BKN120 64.6 54.1 69% 30.13 0.0
01 02:15 W 14 10.00 Overcast BKN095 OVC110 64.2 54.3 70% 30.13 0.0
01 01:55 W 7 10.00 Overcast OVC100 63.3 55 75% 30.13 0.0
01 01:35 W 8 10.00 Overcast OVC110 63.1 55 75% 30.14 0.0
01 01:15 SW 6 10.00 Overcast OVC110 62.4 55.8 79% 30.13 0.0
01 00:55 SW 5 10.00 Partly Cloudy SCT110 62.6 56.1 79% 30.13 0.0
01 00:35 SW 8 10.00 Partly Cloudy FEW090 SCT110 62.1 57 84% 30.13 0.0
01 00:15 SW 9 9.00 Light Rain FEW055 BKN090 BKN110 62.1 57.4 85% 30.14 0.0
31 23:55 S 16 G 26 10.00 Light Rain FEW075 BKN100 BKN120 63.7 56.3 82.4 63.7 77% 30.17 0.0
31 23:35 S 22 G 29 10.00 Partly Cloudy and Breezy SCT120 64.9 55.8 72% 30.18 0.0
31 23:15 S 21 G 28 10.00 Mostly Cloudy and Breezy BKN110 68.5 52.9 58% 30.18 0.0
31 22:55 S 15 10.00 Overcast OVC110 71.4 48.4 44% 30.19 0.0
31 22:35 SE 6 10.00 Overcast OVC110 68.4 51.6 55% 30.17 0.0
31 22:15 W 5 9.00 Overcast OVC110 71.2 48.4 44% 30.15 0.0
31 21:55 SW 8 10.00 Overcast OVC110 74.8 46.4 36% 30.15 0.0
31 21:35 W 14 G 18 10.00 Overcast OVC110 71.2 50.4 48% 30.15 0.0
31 21:15 SW 10 10.00 Overcast OVC100 72.5 49.3 44% 30.14 0.0
31 20:55 SW 9 10.00 Overcast OVC120 72.5 49.8 45% 30.13 0.0
31 20:35 SW 8 10.00 Partly Cloudy SCT120 72.9 49.6 44% 30.12 0.0
31 20:15 SW 7 10.00 Fair CLR 73.2 48.7 42% 30.11 0.0
31 19:55 SW 9 10.00 Fair CLR 73.9 48.7 41% 30.11 0.0
31 19:35 SW 9 10.00 Fair CLR 73.4 49.3 43% 30.11 0.0
31 19:15 S 7 10.00 Fair CLR 74.1 49.3 42% 30.11 0.0
31 18:55 S 9 10.00 Fair CLR 76.5 48.9 38% 78 30.11 0.0
31 18:35 S 12 10.00 Fair CLR 78.8 48 34% 79 30.11 0.0
31 18:15 S 12 10.00 Fair CLR 80.8 44.6 28% 80 30.11 0.0
31 17:55 S 7 10.00 Fair CLR 84 43.5 86.2 79.3 24% 82 30.11 0.0
31 17:35 SW 8 10.00 Fair CLR 84.4 44.2 24% 82 30.11 0.0
31 16:55 S 10 10.00 Fair CLR 85.1 44.6 24% 82 30.11 0.0
31 16:35 S 10 10.00 Fair CLR 84.9 45.5 25% 82 30.11 0.0
31 16:15 S 8 10.00 Fair CLR 83.5 44.6 26% 81 30.11 0.0
31 15:55 SW 12 10.00 Fair CLR 85.5 44.4 24% 83 30.11 0.0
31 15:35 SW 9 G 17 10.00 Fair CLR 86.2 45.1 24% 83 30.12 0.0
31 15:15 SW 13 10.00 Fair CLR 84 44.4 25% 82 30.13 0.0
31 14:55 SW 9 G 20 10.00 Fair CLR 84.7 45.3 25% 82 30.14 0.0
31 14:35 S 10 10.00 Fair CLR 83.3 45.1 26% 81 30.15 0.0
31 14:15 S 12 G 21 10.00 Fair CLR 84 45 25% 82 30.15 0.0
31 13:55 SW 14 G 21 10.00 Fair CLR 83.7 43.9 25% 81 30.16 0.0
31 13:35 SW 15 10.00 Fair CLR 83.7 45 26% 81 30.16 0.0
31 13:15 SW 16 10.00 Fair CLR 83.7 44.8 26% 81 30.17 0.0
31 12:55 SW 16 10.00 Fair CLR 82.2 46 28% 80 30.18 0.0
31 12:35 W 9 10.00 Fair CLR 82.6 46.6 28% 81 30.18 0.0
31 12:15 W 9 10.00 Fair CLR 80.2 47.3 32% 79 30.18 0.0
31 11:55 W 8 10.00 Fair CLR 79.7 46 81 55 31% 79 30.19 0.0
31 11:35 NW 12 10.00 Fair CLR 79.2 47.1 32% 79 30.19 0.0
31 11:15 NW 10 10.00 Fair CLR 79 46.8 32% 79 30.19 0.0
31 10:55 NW 16 10.00 Fair CLR 77 46.2 34% 78 30.19 0.0
31 10:35 NW 9 10.00 Fair CLR 76.8 46.9 35% 78 30.2 0.0
31 10:15 W 8 10.00 Fair CLR 75.4 46.8 36% 77 30.19 0.0
31 09:55 NW 14 10.00 Fair CLR 75.7 45.5 34% 77 30.19 0.0
31 09:35 W 13 10.00 Fair CLR 75.4 45.9 35% 77 30.19 0.0
31 09:15 NW 5 10.00 Fair CLR 72.3 48.4 43% 30.19 0.0
31 08:55 NW 7 10.00 Fair CLR 70 47.8 45% 30.19 0.0
31 08:35 W 5 10.00 Fair CLR 68.4 50 52% 30.18 0.0
31 08:15 W 9 9.00 Fair CLR 68.7 48.2 48% 30.17 0.0
31 07:55 NW 7 9.00 Fair CLR 66.2 48.7 54% 30.17 0.0
31 07:35 W 9 10.00 Fair CLR 63.9 48 57% 30.17 0.0
31 07:15 W 12 9.00 Fair CLR 63.5 47.8 57% 30.15 0.0
31 06:55 W 5 10.00 Fair CLR 58.1 47.3 67% 30.15 0.0
31 06:35 Calm 10.00 Fair CLR 57.9 46.9 67% 30.15 0.0
31 06:15 Calm 10.00 Fair CLR 55.4 49.3 80% 30.14 0.0
31 05:55 Calm 10.00 Fair CLR 55.8 49.6 59.5 54.1 80% 30.14 0.0
31 05:35 SW 7 10.00 Fair CLR 56.7 49.8 78% 30.14 0.0
31 05:15 S 9 10.00 Fair CLR 55.2 50.2 83% 30.14 0.0
31 04:55 S 7 10.00 A Few Clouds FEW120 54.3 50.9 88% 30.12 0.0
31 04:35 Calm 10.00 Mostly Cloudy BKN110 55.2 51.3 87% 30.12 0.0
31 04:15 S 7 10.00 Overcast OVC110 55.9 51.3 84% 30.12 0.0
Date Time (mdt) Wind (mph) Vis. (mi.) Weather Sky Cond. Air Dwpt Max. Min. Relative Humidity Wind Chill (°F) Heat Index (°F) altimeter (in) sea level (mb) 1 hr 3 hr 6 hr
6 hour
Temperature (ºF) Pressure Precipitation (in)